Time;durP1;ratioP1;P1;durP2;ratioP2;P2;SDS_P1;SDS_P2;PMS_P1;PMS_P2;Temp;Humidity;BMP_temperature;BMP_pressure;BME280_temperature;BME280_humidity;BME280_pressure;Samples;Min_cycle;Max_cycle;Signal;HPM_P1;HPM_P2
2021/08/16 00:00:44;;;;;;;21.75;16.95;;;20.40;99.90;;;;;;5032270;28;20091;-72
2021/08/16 00:03:10;;;;;;;21.42;14.18;;;20.40;99.90;;;;;;5032402;28;20021;-72
2021/08/16 00:05:36;;;;;;;19.27;14.15;;;20.30;99.90;;;;;;5032047;28;20438;-71
2021/08/16 00:08:06;;;;;;;21.08;14.63;;;20.30;99.90;;;;;;5032628;28;20108;-72
2021/08/16 00:10:32;;;;;;;25.38;16.58;;;20.30;99.90;;;;;;5014886;28;20033;-71
2021/08/16 00:12:58;;;;;;;19.17;15.75;;;20.40;99.90;;;;;;5032097;28;20472;-73
2021/08/16 00:15:24;;;;;;;22.02;15.75;;;20.40;99.90;;;;;;5031117;28;20022;-72
2021/08/16 00:17:50;;;;;;;20.40;15.20;;;20.40;99.90;;;;;;5031809;28;20037;-73
2021/08/16 00:20:16;;;;;;;24.52;14.00;;;20.50;99.90;;;;;;5031728;28;20037;-71
2021/08/16 00:22:41;;;;;;;20.25;13.00;;;20.50;99.90;;;;;;5031465;28;20415;-73
2021/08/16 00:25:07;;;;;;;17.90;12.57;;;20.40;99.90;;;;;;5031043;28;20029;-73
2021/08/16 00:27:34;;;;;;;23.98;13.40;;;20.30;99.90;;;;;;5031566;28;20025;-72
2021/08/16 00:30:01;;;;;;;16.95;12.32;;;20.20;99.90;;;;;;5031199;28;20032;-73
2021/08/16 00:32:26;;;;;;;15.25;12.45;;;20.20;99.90;;;;;;5031567;28;20105;-71
2021/08/16 00:34:52;;;;;;;20.85;14.45;;;20.30;99.90;;;;;;5030975;28;20655;-72
2021/08/16 00:37:18;;;;;;;20.73;14.30;;;20.40;99.90;;;;;;5031018;28;20022;-72
2021/08/16 00:39:43;;;;;;;16.35;12.57;;;20.40;99.90;;;;;;5031569;28;20037;-72
2021/08/16 00:42:12;;;;;;;12.90;10.75;;;20.40;99.90;;;;;;5031336;28;20053;-72
2021/08/16 00:44:38;;;;;;;15.57;11.32;;;20.30;99.90;;;;;;5022244;28;20025;-72
2021/08/16 00:47:05;;;;;;;17.00;12.65;;;20.30;99.90;;;;;;5050554;28;20028;-72
2021/08/16 00:49:30;;;;;;;15.10;13.55;;;20.50;99.90;;;;;;5050026;28;20033;-71
2021/08/16 00:51:56;;;;;;;19.05;14.82;;;20.50;99.90;;;;;;5050359;28;20075;-72
2021/08/16 00:54:22;;;;;;;19.70;15.07;;;20.60;99.90;;;;;;5049858;28;20104;-72
2021/08/16 00:56:48;;;;;;;24.75;13.27;;;20.70;99.90;;;;;;5050980;28;20471;-72
2021/08/16 00:59:16;;;;;;;17.10;12.65;;;20.50;99.90;;;;;;5051217;28;20029;-72
2021/08/16 01:01:42;;;;;;;18.77;12.35;;;20.20;99.90;;;;;;5050829;28;20035;-72
2021/08/16 01:04:08;;;;;;;19.85;13.35;;;20.00;99.90;;;;;;5051160;28;20025;-72
2021/08/16 01:06:34;;;;;;;18.60;13.65;;;20.10;99.90;;;;;;5050500;28;20025;-72
2021/08/16 01:08:59;;;;;;;27.05;14.82;;;20.10;99.90;;;;;;5053341;28;20025;-72
2021/08/16 01:11:25;;;;;;;19.15;12.82;;;20.20;99.90;;;;;;5054989;28;20025;-72
2021/08/16 01:13:51;;;;;;;16.77;13.95;;;20.10;99.90;;;;;;5055717;28;20662;-72
2021/08/16 01:16:18;;;;;;;16.58;12.10;;;20.10;99.90;;;;;;5054830;28;20697;-72
2021/08/16 01:18:44;;;;;;;15.88;12.10;;;20.20;99.90;;;;;;5055433;28;20085;-73
2021/08/16 01:21:16;;;;;;;20.30;16.27;;;20.20;99.90;;;;;;5055318;28;20029;-73
2021/08/16 01:23:43;;;;;;;22.92;17.10;;;20.30;99.90;;;;;;5055407;28;20463;-73
2021/08/16 01:26:09;;;;;;;25.75;17.48;;;20.40;99.90;;;;;;5054241;28;20402;-71
2021/08/16 01:28:35;;;;;;;17.25;14.13;;;20.50;99.90;;;;;;5036765;28;20025;-73
2021/08/16 01:31:03;;;;;;;18.75;13.57;;;20.50;99.90;;;;;;5054626;28;20029;-72
2021/08/16 01:33:30;;;;;;;18.65;14.43;;;20.60;99.90;;;;;;5054435;28;20054;-71
2021/08/16 01:35:56;;;;;;;19.25;14.23;;;20.50;99.90;;;;;;5036206;28;20029;-72
2021/08/16 01:38:27;;;;;;;27.02;13.95;;;20.50;99.90;;;;;;5055551;28;20024;-71
2021/08/16 01:40:52;;;;;;;16.45;10.50;;;20.40;99.90;;;;;;5057276;28;20025;-75
2021/08/16 01:43:18;;;;;;;10.48;4.15;;;20.10;99.90;;;;;;5058642;28;20064;-74
2021/08/16 01:45:44;;;;;;;11.50;5.15;;;19.40;99.90;;;;;;5057510;28;20039;-74
2021/08/16 01:48:13;;;;;;;11.32;6.07;;;19.00;99.90;;;;;;5054951;28;20029;-73
2021/08/16 01:50:39;;;;;;;9.73;6.57;;;18.80;99.90;;;;;;5054285;28;20025;-73
2021/08/16 01:53:05;;;;;;;14.25;7.93;;;18.70;99.90;;;;;;5053842;28;20025;-73
2021/08/16 01:55:31;;;;;;;13.18;9.35;;;18.60;99.90;;;;;;5052903;28;20032;-73
2021/08/16 01:57:56;;;;;;;20.70;10.85;;;18.60;99.90;;;;;;5035598;28;20021;-73
2021/08/16 02:00:22;;;;;;;20.73;12.70;;;18.70;99.90;;;;;;5053447;28;20028;-73
2021/08/16 02:02:48;;;;;;;29.23;15.63;;;18.80;99.90;;;;;;5053545;28;20063;-73
2021/08/16 02:05:13;;;;;;;35.58;18.58;;;18.80;99.90;;;;;;5052665;28;20113;-74
2021/08/16 02:07:39;;;;;;;30.27;17.65;;;18.90;99.90;;;;;;5053726;28;20025;-73
2021/08/16 02:10:06;;;;;;;25.02;16.60;;;18.70;99.90;;;;;;5052886;28;20386;-73
2021/08/16 02:12:31;;;;;;;30.65;20.25;;;18.80;99.90;;;;;;5053048;28;20032;-74
2021/08/16 02:14:57;;;;;;;38.58;21.20;;;18.80;99.90;;;;;;5052350;28;20029;-73
2021/08/16 02:17:22;;;;;;;23.02;17.83;;;18.70;99.90;;;;;;5035237;28;20032;-73
2021/08/16 02:19:48;;;;;;;30.80;19.85;;;18.70;99.90;;;;;;5052598;28;20036;-73
2021/08/16 02:22:15;;;;;;;22.95;18.00;;;18.70;99.90;;;;;;5052781;28;20048;-73
2021/08/16 02:24:41;;;;;;;25.77;17.95;;;18.70;99.90;;;;;;5052689;28;20025;-73
2021/08/16 02:27:06;;;;;;;42.92;22.20;;;18.60;99.90;;;;;;5053167;28;20368;-73
2021/08/16 02:29:33;;;;;;;35.47;22.77;;;18.60;99.90;;;;;;5052898;28;20040;-73
2021/08/16 02:31:59;;;;;;;38.83;24.25;;;18.60;99.90;;;;;;5052521;28;20025;-73
2021/08/16 02:34:25;;;;;;;38.72;24.45;;;18.60;99.90;;;;;;5052153;28;20021;-73
2021/08/16 02:36:50;;;;;;;36.33;22.35;;;18.60;99.90;;;;;;5052631;28;20467;-73
2021/08/16 02:39:16;;;;;;;28.67;20.05;;;18.50;99.90;;;;;;5052634;28;20025;-73
2021/08/16 02:41:42;;;;;;;24.08;18.95;;;18.40;99.90;;;;;;5052564;28;20447;-73
2021/08/16 02:44:08;;;;;;;28.08;19.85;;;18.40;99.90;;;;;;5052369;28;20036;-73
2021/08/16 02:46:33;;;;;;;48.67;26.80;;;18.40;99.90;;;;;;5051762;28;20029;-72
2021/08/16 02:49:00;;;;;;;29.95;21.33;;;18.50;99.90;;;;;;5052727;28;20021;-74
2021/08/16 02:51:26;;;;;;;39.15;23.85;;;18.50;99.90;;;;;;5052447;28;20021;-73
2021/08/16 02:53:53;;;;;;;32.38;20.92;;;18.50;99.90;;;;;;5052716;28;20029;-74
2021/08/16 02:56:18;;;;;;;35.30;20.58;;;18.50;99.90;;;;;;5052276;28;20057;-73
2021/08/16 02:58:44;;;;;;;30.83;21.10;;;18.50;99.90;;;;;;5053229;28;20049;-72
2021/08/16 03:01:10;;;;;;;28.27;19.10;;;18.30;99.90;;;;;;5035673;28;20025;-72
2021/08/16 03:03:36;;;;;;;26.23;18.88;;;18.30;99.90;;;;;;5054132;28;20499;-73
2021/08/16 03:06:02;;;;;;;23.60;18.35;;;18.30;99.90;;;;;;5052983;28;20498;-73
2021/08/16 03:08:28;;;;;;;26.92;19.33;;;18.30;99.90;;;;;;5035056;28;20028;-73
2021/08/16 03:10:53;;;;;;;31.58;19.90;;;18.30;99.90;;;;;;5053544;28;20025;-73
2021/08/16 03:13:19;;;;;;;28.20;18.17;;;18.30;99.90;;;;;;5053320;28;20364;-73
2021/08/16 03:15:45;;;;;;;36.90;20.02;;;18.20;99.90;;;;;;5051851;28;20027;-73
2021/08/16 03:18:10;;;;;;;31.70;18.67;;;18.20;99.90;;;;;;5052225;28;20442;-73
2021/08/16 03:20:36;;;;;;;22.55;19.00;;;18.20;99.90;;;;;;5052261;28;20103;-73
2021/08/16 03:23:02;;;;;;;23.65;17.85;;;18.10;99.90;;;;;;5053679;28;20403;-73
2021/08/16 03:25:28;;;;;;;28.13;18.58;;;18.10;99.90;;;;;;5052925;28;20108;-73
2021/08/16 03:27:54;;;;;;;24.75;17.98;;;18.10;99.90;;;;;;5054140;28;20107;-73
2021/08/16 03:30:20;;;;;;;26.13;18.17;;;18.00;99.90;;;;;;5053473;28;20387;-72
2021/08/16 03:32:47;;;;;;;22.33;17.92;;;18.00;99.90;;;;;;5051411;28;20021;-73
2021/08/16 03:35:14;;;;;;;27.58;18.88;;;18.00;99.90;;;;;;5052060;28;20026;-72
2021/08/16 03:37:41;;;;;;;25.40;17.38;;;18.00;99.90;;;;;;5052523;28;20078;-71
2021/08/16 03:40:09;;;;;;;24.40;18.17;;;18.00;99.90;;;;;;5052422;28;20021;-73
2021/08/16 03:42:35;;;;;;;24.83;18.02;;;18.00;99.90;;;;;;5052113;28;20021;-74
2021/08/16 03:45:04;;;;;;;20.48;17.73;;;17.90;99.90;;;;;;5051570;28;20040;-73
2021/08/16 03:47:29;;;;;;;25.30;18.42;;;17.90;99.90;;;;;;5034147;28;20021;-72
2021/08/16 03:49:55;;;;;;;24.10;18.90;;;17.80;99.90;;;;;;5052154;28;20532;-72
2021/08/16 03:52:21;;;;;;;24.55;17.90;;;17.90;99.90;;;;;;5052381;28;20519;-72
2021/08/16 03:54:46;;;;;;;25.50;18.30;;;17.90;99.90;;;;;;5051479;28;20087;-73
2021/08/16 03:57:12;;;;;;;28.02;18.05;;;17.90;99.90;;;;;;5051350;28;20057;-73
2021/08/16 03:59:38;;;;;;;26.35;18.67;;;17.90;99.90;;;;;;5051434;28;20025;-73
2021/08/16 04:02:03;;;;;;;33.28;22.33;;;17.90;99.90;;;;;;5051608;28;20113;-73
2021/08/16 04:04:29;;;;;;;41.00;25.00;;;17.90;99.90;;;;;;5051335;28;20033;-72
2021/08/16 04:06:54;;;;;;;34.22;23.45;;;18.00;99.90;;;;;;5033739;28;20032;-73
2021/08/16 04:09:20;;;;;;;57.72;28.05;;;18.00;99.90;;;;;;5050862;28;20510;-73
2021/08/16 04:11:46;;;;;;;56.40;27.75;;;18.00;99.90;;;;;;5051190;28;20057;-72
2021/08/16 04:14:11;;;;;;;41.85;27.00;;;18.00;99.90;;;;;;5051583;28;20029;-72
2021/08/16 04:16:37;;;;;;;43.67;27.13;;;18.00;99.90;;;;;;5050743;28;20021;-73
2021/08/16 04:19:04;;;;;;;44.65;27.15;;;17.90;99.90;;;;;;5051387;28;20036;-73
2021/08/16 04:21:30;;;;;;;57.75;31.05;;;17.90;99.90;;;;;;5051622;28;20107;-73
2021/08/16 04:23:56;;;;;;;50.00;29.17;;;17.90;99.90;;;;;;5037394;28;20021;-74
2021/08/16 04:26:21;;;;;;;63.53;35.20;;;17.90;99.90;;;;;;5011673;28;20029;-72
2021/08/16 04:28:47;;;;;;;43.13;28.70;;;17.90;99.90;;;;;;5031007;28;20113;-72
2021/08/16 04:31:13;;;;;;;56.13;31.90;;;17.80;99.90;;;;;;5030876;28;20026;-72
2021/08/16 04:33:38;;;;;;;37.78;25.25;;;17.80;99.90;;;;;;5031248;28;20026;-72
2021/08/16 04:36:04;;;;;;;53.92;31.83;;;17.80;99.90;;;;;;5030403;28;20094;-73
2021/08/16 04:38:30;;;;;;;37.92;25.52;;;17.90;99.90;;;;;;5031336;28;20621;-74
2021/08/16 04:40:56;;;;;;;46.30;28.52;;;17.90;99.90;;;;;;5031339;28;20032;-73
2021/08/16 04:43:22;;;;;;;50.42;32.40;;;17.90;99.90;;;;;;5030642;28;20051;-73
2021/08/16 04:45:48;;;;;;;56.38;32.28;;;17.90;99.90;;;;;;5042007;28;20535;-73
2021/08/16 04:48:14;;;;;;;43.15;26.58;;;17.90;99.90;;;;;;5051138;28;20052;-73
2021/08/16 04:50:40;;;;;;;44.13;30.38;;;18.00;99.90;;;;;;5033109;28;20056;-73
2021/08/16 04:53:05;;;;;;;48.83;32.28;;;18.00;99.90;;;;;;5050956;28;20021;-74
2021/08/16 04:55:31;;;;;;;44.85;30.25;;;18.10;99.90;;;;;;5049675;28;20099;-73
2021/08/16 04:57:57;;;;;;;40.15;28.73;;;18.20;99.90;;;;;;5040091;28;20349;-73
2021/08/16 05:00:26;;;;;;;51.08;30.08;;;18.30;99.90;;;;;;5030894;28;20651;-71
2021/08/16 05:02:56;;;;;;;39.80;29.77;;;18.40;99.90;;;;;;5030650;28;20377;-71
2021/08/16 05:05:29;;;;;;;36.65;27.50;;;18.40;99.90;;;;;;5029946;28;20039;-73
2021/08/16 05:07:56;;;;;;;62.08;32.05;;;18.50;99.90;;;;;;5030656;28;20033;-73
2021/08/16 05:10:23;;;;;;;50.20;31.73;;;18.60;99.90;;;;;;5029898;28;20029;-75
2021/08/16 05:12:50;;;;;;;47.08;29.90;;;18.80;99.90;;;;;;5023726;28;20049;-75
2021/08/16 05:15:17;;;;;;;40.67;29.23;;;18.90;99.90;;;;;;5022753;28;20017;-73
2021/08/16 05:17:43;;;;;;;35.65;28.92;;;18.90;99.90;;;;;;5049635;28;20109;-74
2021/08/16 05:20:10;;;;;;;50.92;27.60;;;19.00;99.90;;;;;;5030727;28;20104;-75
2021/08/16 05:22:39;;;;;;;30.73;23.58;;;19.00;99.90;;;;;;5037132;28;20706;-72
2021/08/16 05:25:06;;;;;;;33.50;24.38;;;18.90;99.90;;;;;;5019725;28;20088;-72
2021/08/16 05:27:31;;;;;;;31.98;21.88;;;18.90;99.90;;;;;;5029953;28;20483;-70
2021/08/16 05:29:57;;;;;;;32.10;21.27;;;19.00;99.90;;;;;;5030506;28;20025;-76
2021/08/16 05:32:22;;;;;;;25.13;20.30;;;18.90;99.90;;;;;;5030579;28;20021;-71
2021/08/16 05:34:48;;;;;;;21.95;19.50;;;18.90;99.90;;;;;;5029376;28;20021;-72
2021/08/16 05:37:14;;;;;;;23.35;16.77;;;18.90;99.90;;;;;;5030540;28;20029;-73
2021/08/16 05:39:40;;;;;;;19.77;15.82;;;18.90;99.90;;;;;;5030306;28;20025;-72
2021/08/16 05:42:08;;;;;;;16.58;14.90;;;18.90;99.90;;;;;;5030562;28;20495;-71
2021/08/16 05:44:34;;;;;;;22.55;15.88;;;19.00;99.90;;;;;;5030705;28;20119;-71
2021/08/16 05:47:06;;;;;;;20.35;14.70;;;19.00;99.90;;;;;;5050614;28;20130;-71
2021/08/16 05:49:32;;;;;;;19.60;15.48;;;19.00;99.90;;;;;;5049391;28;20028;-72
2021/08/16 05:51:57;;;;;;;25.80;14.65;;;18.90;99.90;;;;;;5050508;28;20116;-71
2021/08/16 05:54:23;;;;;;;20.60;15.45;;;18.90;99.90;;;;;;5049858;28;20479;-73
2021/08/16 05:56:49;;;;;;;24.08;13.43;;;18.90;99.90;;;;;;5054379;28;20040;-72
2021/08/16 05:59:15;;;;;;;15.38;13.63;;;18.90;99.90;;;;;;5054614;28;20360;-70
2021/08/16 06:01:40;;;;;;;14.77;11.88;;;19.10;99.90;;;;;;5050816;28;20103;-70
2021/08/16 06:04:07;;;;;;;17.35;12.55;;;19.40;99.90;;;;;;5028934;28;20068;-72
2021/08/16 06:06:33;;;;;;;12.63;10.50;;;19.60;99.90;;;;;;5032194;28;20087;-72
2021/08/16 06:08:59;;;;;;;12.52;9.35;;;19.60;99.90;;;;;;5032483;28;20117;-71
2021/08/16 06:11:25;;;;;;;11.98;8.48;;;19.70;99.90;;;;;;5033785;28;20585;-73
2021/08/16 06:13:51;;;;;;;12.55;9.35;;;19.40;99.90;;;;;;5033778;28;20056;-73
2021/08/16 06:16:17;;;;;;;15.68;9.05;;;19.50;99.90;;;;;;5032944;28;20499;-73
2021/08/16 06:18:43;;;;;;;11.50;7.10;;;19.60;99.90;;;;;;5033897;28;20025;-72
2021/08/16 06:21:09;;;;;;;19.58;9.25;;;19.60;99.90;;;;;;5033399;28;20026;-72
2021/08/16 06:23:35;;;;;;;13.77;8.50;;;19.70;99.90;;;;;;5033522;28;21002;-73
2021/08/16 06:26:02;;;;;;;10.95;7.78;;;19.60;99.90;;;;;;5032591;28;20166;-74
2021/08/16 06:28:28;;;;;;;13.05;10.15;;;19.50;99.90;;;;;;5033482;28;20337;-73
2021/08/16 06:30:53;;;;;;;11.77;9.20;;;19.60;99.90;;;;;;5033631;28;20032;-73
2021/08/16 06:33:19;;;;;;;10.93;8.48;;;19.70;99.90;;;;;;5033545;28;20025;-73
2021/08/16 06:35:46;;;;;;;12.25;7.82;;;19.70;99.90;;;;;;5046147;28;20052;-73
2021/08/16 06:38:25;;;;;;;18.05;9.65;;;19.70;99.90;;;;;;5053287;28;20017;-73
2021/08/16 06:40:53;;;;;;;13.95;8.68;;;20.00;99.90;;;;;;5053098;28;20479;-73
2021/08/16 06:43:19;;;;;;;11.48;8.02;;;20.00;99.90;;;;;;5035318;28;20125;-73
2021/08/16 06:45:45;;;;;;;14.60;7.25;;;20.10;99.90;;;;;;5051264;28;20024;-74
2021/08/16 06:48:12;;;;;;;10.50;7.15;;;20.10;99.90;;;;;;5052816;28;20434;-75
2021/08/16 06:50:38;;;;;;;10.80;7.72;;;19.90;99.90;;;;;;5053005;28;20021;-73
2021/08/16 06:53:04;;;;;;;11.82;6.57;;;20.00;99.90;;;;;;5052903;28;20539;-74
2021/08/16 06:55:30;;;;;;;12.63;6.60;;;19.90;99.90;;;;;;5052201;28;20021;-74
2021/08/16 06:57:56;;;;;;;8.30;6.28;;;19.70;99.90;;;;;;5052847;28;20025;-73
2021/08/16 07:00:22;;;;;;;9.85;6.07;;;19.70;99.90;;;;;;5027423;28;20029;-72
2021/08/16 07:02:47;;;;;;;8.38;6.60;;;19.60;99.90;;;;;;5035407;28;20095;-74
2021/08/16 07:05:13;;;;;;;9.15;6.80;;;19.60;99.90;;;;;;5035798;28;20030;-74
2021/08/16 07:07:39;;;;;;;9.18;6.43;;;19.70;99.90;;;;;;5034946;28;20475;-74
2021/08/16 07:10:05;;;;;;;8.85;6.13;;;19.80;99.90;;;;;;5014869;28;20047;-74
2021/08/16 07:12:31;;;;;;;9.98;6.18;;;19.80;99.90;;;;;;5039365;28;20029;-72
2021/08/16 07:14:56;;;;;;;10.68;6.32;;;20.00;99.90;;;;;;5028373;28;20499;-73
2021/08/16 07:17:22;;;;;;;12.13;6.68;;;20.20;99.90;;;;;;5046675;28;20029;-73
2021/08/16 07:19:48;;;;;;;6.78;4.88;;;20.50;99.90;;;;;;5047778;28;20080;-73
2021/08/16 07:22:13;;;;;;;7.22;4.93;;;20.60;99.90;;;;;;5047496;28;20108;-74
2021/08/16 07:24:39;;;;;;;7.95;4.93;;;20.90;99.90;;;;;;5034255;28;20458;-74
2021/08/16 07:27:05;;;;;;;11.65;5.20;;;21.20;99.90;;;;;;5033197;28;20536;-74
2021/08/16 07:29:31;;;;;;;16.33;4.97;;;21.20;99.90;;;;;;5015250;28;20029;-74
2021/08/16 07:31:57;;;;;;;9.23;4.93;;;21.40;99.90;;;;;;5033451;28;20052;-73
2021/08/16 07:34:23;;;;;;;6.35;4.22;;;21.50;99.90;;;;;;5014723;28;20026;-73
2021/08/16 07:36:50;;;;;;;7.88;4.15;;;21.60;99.90;;;;;;5032454;28;20020;-72
2021/08/16 07:39:16;;;;;;;4.97;3.97;;;21.50;99.90;;;;;;5033481;28;20056;-73
2021/08/16 07:41:42;;;;;;;6.68;3.63;;;21.20;99.90;;;;;;5035319;28;20543;-71
2021/08/16 07:44:08;;;;;;;4.53;4.00;;;21.50;99.90;;;;;;5032709;28;20108;-73
2021/08/16 07:46:34;;;;;;;6.93;4.00;;;21.80;99.90;;;;;;5048824;28;20115;-73
2021/08/16 07:49:00;;;;;;;6.50;4.15;;;22.00;99.90;;;;;;5052184;28;20399;-73
2021/08/16 07:51:26;;;;;;;6.32;4.32;;;22.40;99.90;;;;;;5052410;28;20025;-74
2021/08/16 07:53:51;;;;;;;7.75;3.20;;;22.70;99.90;;;;;;5052242;28;20025;-72
2021/08/16 07:56:17;;;;;;;7.47;3.85;;;22.10;99.90;;;;;;5051573;28;20467;-74
2021/08/16 07:58:42;;;;;;;6.05;3.92;;;21.80;99.90;;;;;;5051990;28;20049;-71
2021/08/16 08:01:08;;;;;;;7.72;3.95;;;21.80;99.90;;;;;;5018108;28;20519;-70
2021/08/16 08:03:34;;;;;;;8.63;3.83;;;21.70;99.90;;;;;;5031983;28;20017;-70
2021/08/16 08:06:00;;;;;;;7.05;3.50;;;21.40;99.90;;;;;;5013850;28;20072;-70
2021/08/16 08:08:25;;;;;;;6.65;3.65;;;21.30;99.90;;;;;;5031671;28;20036;-70
2021/08/16 08:10:51;;;;;;;8.30;3.72;;;21.50;99.90;;;;;;5049579;28;20021;-70
2021/08/16 08:13:17;;;;;;;4.97;3.53;;;21.50;99.90;;;;;;5051559;28;20027;-70
2021/08/16 08:15:43;;;;;;;7.82;4.10;;;21.70;99.90;;;;;;5051034;28;20071;-70
2021/08/16 08:18:10;;;;;;;7.10;3.67;;;21.50;99.90;;;;;;5050844;28;20055;-70
2021/08/16 08:20:37;;;;;;;6.95;3.50;;;21.70;99.90;;;;;;5051738;28;20032;-73
2021/08/16 08:23:03;;;;;;;6.50;4.10;;;21.90;99.90;;;;;;5052148;28;20558;-74
2021/08/16 08:25:29;;;;;;;8.13;3.65;;;22.10;99.90;;;;;;5051113;28;20025;-73
2021/08/16 08:27:55;;;;;;;9.68;3.45;;;22.30;99.90;;;;;;5051718;28;20027;-73
2021/08/16 08:30:21;;;;;;;5.20;3.30;;;22.20;99.90;;;;;;5051465;28;20033;-72
2021/08/16 08:32:51;;;;;;;7.78;3.58;;;22.10;99.90;;;;;;5051600;28;20028;-75
2021/08/16 08:35:19;;;;;;;7.22;3.72;;;22.20;99.90;;;;;;5033403;28;20051;-72
2021/08/16 08:37:45;;;;;;;6.93;3.83;;;22.20;99.90;;;;;;5052686;28;20029;-76
2021/08/16 08:40:11;;;;;;;5.18;3.58;;;22.70;99.90;;;;;;5052315;28;20449;-73
2021/08/16 08:42:38;;;;;;;5.95;3.70;;;22.80;99.90;;;;;;5052146;28;20017;-72
2021/08/16 08:45:06;;;;;;;5.95;3.40;;;22.80;99.90;;;;;;5047247;28;20562;-73
2021/08/16 08:47:33;;;;;;;6.60;3.30;;;22.60;99.90;;;;;;5032000;28;20025;-73
2021/08/16 08:49:59;;;;;;;9.38;3.85;;;23.10;99.90;;;;;;5013548;28;20472;-74
2021/08/16 08:52:25;;;;;;;7.90;3.65;;;23.50;99.90;;;;;;5032200;28;20079;-74
2021/08/16 08:54:54;;;;;;;5.65;3.20;;;22.90;99.90;;;;;;5031985;28;20363;-73
2021/08/16 08:57:21;;;;;;;7.50;3.10;;;22.50;99.90;;;;;;5032016;28;20025;-72
2021/08/16 08:59:47;;;;;;;6.70;3.20;;;23.20;99.90;;;;;;5031586;28;20471;-74
2021/08/16 09:02:14;;;;;;;4.32;3.33;;;23.80;99.90;;;;;;5012869;28;20041;-73
2021/08/16 09:04:53;;;;;;;5.22;3.35;;;23.80;99.90;;;;;;5034663;28;20020;-72
2021/08/16 09:07:29;;;;;;;3.25;2.92;;;23.60;99.90;;;;;;5051326;28;20499;-73
2021/08/16 09:09:55;;;;;;;7.07;3.25;;;23.10;99.90;;;;;;5051145;28;20032;-74
2021/08/16 09:12:33;;;;;;;4.95;3.25;;;22.60;99.90;;;;;;5050915;28;20092;-72
2021/08/16 09:14:59;;;;;;;5.10;3.30;;;22.30;99.90;;;;;;5050596;28;20021;-74
2021/08/16 09:17:33;;;;;;;3.83;3.40;;;22.20;99.90;;;;;;5050990;28;20036;-73
2021/08/16 09:20:00;;;;;;;7.32;3.42;;;22.10;99.90;;;;;;5050959;28;20040;-72
2021/08/16 09:22:30;;;;;;;7.25;3.70;;;21.40;99.90;;;;;;5049730;28;20037;-73
2021/08/16 09:25:09;;;;;;;5.97;3.65;;;21.40;99.90;;;;;;5050141;28;20502;-74
2021/08/16 09:27:46;;;;;;;5.80;3.63;;;21.60;99.90;;;;;;5035100;28;20040;-74
2021/08/16 09:30:14;;;;;;;6.15;3.88;;;21.60;99.90;;;;;;5036932;28;20498;-73
2021/08/16 09:32:40;;;;;;;7.95;3.80;;;21.50;99.90;;;;;;5055376;28;20052;-72
2021/08/16 09:35:14;;;;;;;7.57;3.70;;;21.50;99.90;;;;;;5055037;28;20071;-71
2021/08/16 09:37:41;;;;;;;6.18;4.22;;;21.50;99.90;;;;;;5037774;28;20031;-72
2021/08/16 09:40:10;;;;;;;5.30;3.67;;;21.60;99.90;;;;;;5037959;28;20037;-72
2021/08/16 09:42:50;;;;;;;5.32;4.20;;;21.80;99.90;;;;;;5037615;28;20056;-73
2021/08/16 09:45:38;;;;;;;5.43;3.83;;;22.00;99.90;;;;;;5037280;28;20128;-71
2021/08/16 09:48:07;;;;;;;7.88;4.00;;;22.00;99.90;;;;;;5055565;28;20102;-74
2021/08/16 09:50:39;;;;;;;7.15;3.80;;;22.00;99.90;;;;;;5054806;28;20035;-74
2021/08/16 09:53:10;;;;;;;6.07;4.25;;;21.70;99.90;;;;;;5054593;28;20040;-73
2021/08/16 09:55:42;;;;;;;5.72;4.40;;;21.50;99.90;;;;;;5053929;28;20421;-72
2021/08/16 09:58:09;;;;;;;;;;;21.50;99.90;;;;;;5054608;28;20032;-72
2021/08/16 10:00:37;;;;;;;5.60;4.13;;;21.60;99.90;;;;;;5043989;28;19913;-74
2021/08/16 10:03:05;;;;;;;9.80;4.07;;;21.80;99.90;;;;;;5033974;28;20021;-72
2021/08/16 10:05:31;;;;;;;10.40;4.32;;;22.00;99.90;;;;;;5033719;28;20049;-71
2021/08/16 10:07:59;;;;;;;10.68;4.60;;;22.20;99.90;;;;;;5034113;28;20510;-73
2021/08/16 10:10:26;;;;;;;6.95;4.38;;;22.30;99.90;;;;;;5034159;28;20136;-73
2021/08/16 10:12:52;;;;;;;6.82;4.18;;;22.30;99.90;;;;;;5016312;28;20389;-73
2021/08/16 10:15:18;;;;;;;5.05;4.03;;;22.00;99.90;;;;;;5033396;28;20557;-72
2021/08/16 10:17:45;;;;;;;10.70;4.50;;;21.90;99.90;;;;;;5033948;28;20026;-70
2021/08/16 10:20:12;;;;;;;6.78;4.65;;;21.80;99.90;;;;;;5034052;28;20586;-73
2021/08/16 10:22:39;;;;;;;8.07;4.93;;;21.60;99.90;;;;;;5033850;28;20746;-73
2021/08/16 10:25:17;;;;;;;9.70;4.28;;;21.40;99.90;;;;;;5033487;28;20029;-71
2021/08/16 10:27:44;;;;;;;6.47;3.53;;;21.60;99.90;;;;;;5035285;28;20052;-72
2021/08/16 10:30:17;;;;;;;7.70;3.78;;;21.50;99.90;;;;;;5034176;28;20033;-72
2021/08/16 10:32:43;;;;;;;4.55;3.70;;;21.50;99.90;;;;;;5040419;28;20096;-73
2021/08/16 10:35:13;;;;;;;6.50;3.35;;;21.50;99.90;;;;;;5015313;28;20096;-73
2021/08/16 10:37:43;;;;;;;7.25;3.90;;;21.90;99.90;;;;;;5033981;28;20053;-72
2021/08/16 10:40:25;;;;;;;5.47;3.85;;;22.10;99.90;;;;;;5033525;28;20021;-74
2021/08/16 10:42:55;;;;;;;6.53;3.67;;;22.40;99.90;;;;;;5033214;28;20049;-71
2021/08/16 10:45:30;;;;;;;6.63;3.53;;;22.70;99.90;;;;;;5037555;28;20017;-72
2021/08/16 10:48:06;;;;;;;6.50;3.78;;;23.40;99.90;;;;;;5053523;28;20086;-72
2021/08/16 10:50:34;;;;;;;4.03;3.55;;;23.40;99.90;;;;;;5053562;28;20035;-73
2021/08/16 10:53:09;;;;;;;6.07;3.50;;;24.00;99.90;;;;;;5032050;28;20105;-75
2021/08/16 10:55:40;;;;;;;6.97;3.67;;;24.20;99.90;;;;;;5013152;28;20057;-74
2021/08/16 10:58:07;;;;;;;8.10;3.50;;;24.20;99.90;;;;;;5023425;28;20111;-73
2021/08/16 11:00:34;;;;;;;5.18;3.50;;;23.90;99.90;;;;;;5032874;28;20030;-76
2021/08/16 11:03:00;;;;;;;7.07;3.25;;;23.90;99.90;;;;;;5033340;28;20116;-74
2021/08/16 11:05:33;;;;;;;5.70;3.58;;;23.70;99.90;;;;;;5032714;28;20507;-73
2021/08/16 11:08:03;;;;;;;7.32;3.60;;;23.90;99.90;;;;;;5033202;28;20026;-74
2021/08/16 11:10:39;;;;;;;7.28;3.72;;;24.20;99.90;;;;;;5044001;28;20488;-73
2021/08/16 11:13:13;;;;;;;5.53;3.60;;;24.00;99.90;;;;;;5053326;28;20108;-74
2021/08/16 11:15:39;;;;;;;7.18;3.65;;;23.40;99.90;;;;;;5044444;28;20052;-73
2021/08/16 11:18:23;;;;;;;5.07;3.55;;;22.80;99.90;;;;;;5032743;28;20068;-74
2021/08/16 11:21:00;;;;;;;7.95;3.65;;;22.80;99.90;;;;;;5032903;28;20032;-73
2021/08/16 11:23:27;;;;;;;8.05;3.92;;;23.20;99.90;;;;;;5032206;28;20037;-74
2021/08/16 11:25:55;;;;;;;6.15;3.67;;;23.20;99.90;;;;;;5032000;28;20029;-75
2021/08/16 11:28:25;;;;;;;8.10;3.72;;;23.00;99.90;;;;;;5032370;28;20049;-74
2021/08/16 11:31:03;;;;;;;6.35;3.90;;;23.30;99.90;;;;;;5032265;28;20022;-74
2021/08/16 11:33:29;;;;;;;4.88;3.30;;;23.60;99.90;;;;;;5032496;28;20018;-74
2021/08/16 11:36:10;;;;;;;6.10;3.30;;;23.90;99.90;;;;;;5014042;28;20029;-72
2021/08/16 11:38:37;;;;;;;6.40;3.38;;;23.40;99.90;;;;;;5032252;28;20018;-74
2021/08/16 11:41:08;;;;;;;8.50;3.75;;;23.60;99.90;;;;;;5032408;28;20033;-72
2021/08/16 11:43:34;;;;;;;6.43;2.95;;;23.20;99.90;;;;;;5032350;28;20399;-74
2021/08/16 11:46:33;;;;;;;7.53;3.47;;;24.80;99.90;;;;;;5031189;28;20041;-75
2021/08/16 11:48:59;;;;;;;5.93;3.28;;;24.80;99.90;;;;;;5024469;28;20041;-74
2021/08/16 11:51:24;;;;;;;8.80;3.50;;;24.40;99.90;;;;;;5032066;28;20476;-73
2021/08/16 11:53:50;;;;;;;5.75;3.72;;;24.10;99.90;;;;;;5031525;28;20018;-73
2021/08/16 11:56:16;;;;;;;4.60;3.58;;;23.50;99.90;;;;;;5050066;22;20073;-74
2021/08/16 11:58:44;;;;;;;4.20;3.40;;;23.80;99.90;;;;;;5040090;28;20028;-76
2021/08/16 12:01:11;;;;;;;6.75;3.50;;;23.90;99.90;;;;;;5031819;28;20030;-75
2021/08/16 12:03:37;;;;;;;4.70;3.90;;;23.80;99.90;;;;;;5031981;28;20026;-76
2021/08/16 12:06:04;;;;;;;6.35;3.70;;;23.50;99.90;;;;;;5046392;28;20122;-75
2021/08/16 12:08:32;;;;;;;4.68;3.90;;;23.60;99.90;;;;;;5052052;28;20031;-75
2021/08/16 12:10:59;;;;;;;8.18;3.30;;;23.40;99.90;;;;;;5051345;28;20056;-73
2021/08/16 12:13:25;;;;;;;5.35;3.70;;;23.70;99.90;;;;;;5051662;28;20035;-74
2021/08/16 12:15:52;;;;;;;6.35;3.20;;;24.20;99.90;;;;;;5053262;28;20020;-74
2021/08/16 12:18:29;;;;;;;5.07;3.70;;;24.90;99.90;;;;;;5085805;28;20028;-75
2021/08/16 12:20:56;;;;;;;3.88;3.20;;;25.60;99.90;;;;;;5070021;28;20021;-75
2021/08/16 12:23:32;;;;;;;8.02;3.20;;;26.30;99.90;;;;;;5066569;28;20035;-76
2021/08/16 12:25:59;;;;;;;8.90;3.85;;;26.20;99.90;;;;;;5066339;28;20060;-75
2021/08/16 12:28:44;;;;;;;5.28;3.65;;;25.70;99.90;;;;;;5071231;28;20016;-75
2021/08/16 12:31:23;;;;;;;5.68;3.63;;;24.90;99.90;;;;;;5071234;28;20016;-75
2021/08/16 12:34:08;;;;;;;7.93;3.47;;;24.40;99.90;;;;;;5071058;28;20021;-74
2021/08/16 12:36:40;;;;;;;5.03;3.00;;;24.20;99.90;;;;;;5070477;28;20016;-74